Latest Coastal Weather Observations for Smithton

IDT60701

Issued at 6:52 am EDT Tuesday 7 February 2023 (issued every 10 minutes, with the page automatically refreshed every 10 minutes)

About coastal observations | Map of coastal stations | Coastal observations for TAS | Marine services | Other Formats
Station Details ID: 091292 Name: SMITHTON AERODROME Lat: -40.83 Lon: 145.08 Height: 7.5 m
Data from the previous 72 hours. | See also: Recent months at Smithton
Date/Time
EDT
Wind Sea
Height
m
Swell Vis
km
Cloud Weather Temp
°C
Press
MSL
hPa
Rain since
9am
mm
Dir  Spd
kts
Gust
kts
Height
m
Period
s
Dir
07/06:30am SW 8 14 - - - - - - - 12.4 1017.7 0.0
07/06:00am SW 10 12 - - - - - - - 12.4 1017.4 0.0
07/05:30am SW 10 13 - - - - - - - 13.1 1017.2 0.0
07/05:00am SW 8 11 - - - - - - - 13.4 1017.2 0.0
07/04:30am SW 9 12 - - - - - - - 13.6 1017.3 0.0
07/04:00am SW 10 13 - - - - - - - 13.4 1017.4 0.0
07/03:30am WSW 9 11 - - - - - - - 12.9 1017.6 0.0
07/03:00am WSW 8 10 - - - - - - - 12.6 1017.6 0.0
07/02:30am WSW 9 10 - - - - - - - 11.9 1017.6 0.0
07/02:00am SW 8 10 - - - - - - - 11.2 1017.7 0.0
07/01:30am WSW 10 11 - - - - - - - 11.8 1017.8 0.0
07/01:00am WSW 9 10 - - - - - - - 11.9 1017.9 0.0
07/12:30am SW 9 11 - - - - - - - 11.8 1018.1 0.0
07/12:00am SW 10 12 - - - - - - - 12.5 1018.2 0.0
 
Date/Time
EDT
Wind Sea
Height
m
Swell Vis
km
Cloud Weather Temp
°C
Press
MSL
hPa
Rain since
9am
mm
Dir  Spd
kts
Gust
kts
Height
m
Period
s
Dir
06/11:30pm SW 11 13 - - - - - - - 12.9 1018.4 0.0
06/11:00pm SW 9 11 - - - - - - - 13.2 1018.6 0.0
06/10:30pm SW 9 12 - - - - - - - 13.4 1018.6 0.0
06/10:00pm SW 8 11 - - - - - - - 13.4 1018.3 0.0
06/09:30pm WSW 8 10 - - - - - - - 13.7 1018.1 0.0
06/09:00pm SW 7 11 - - - - - - - 14.3 1018.0 0.0
06/08:30pm SW 11 14 - - - - - - - 15.6 1017.8 0.0
06/08:00pm SW 11 15 - - - - - - - 16.5 1017.4 0.0
06/07:30pm SW 14 18 - - - - - - - 16.8 1017.3 0.0
06/07:00pm SW 13 18 - - - - - - - 17.2 1017.1 0.0
06/06:30pm WSW 16 21 - - - - - - - 18.1 1017.1 0.0
06/06:00pm SW 14 19 - - - - - - - 18.7 1016.9 0.0
06/05:30pm SW 17 22 - - - - - - - 19.5 1016.9 0.0
06/05:00pm SW 17 22 - - - - - - - 19.7 1017.1 0.0
06/04:30pm SW 18 23 - - - - - - - 19.7 1017.1 0.0
06/04:00pm WSW 19 25 - - - - - - - 20.8 1017.2 0.0
06/03:30pm SW 15 20 - - - - - - - 21.2 1017.3 0.0
06/03:00pm SW 17 24 - - - - - - - 19.6 1017.4 0.0
06/02:30pm WSW 17 22 - - - - - - - 20.9 1017.5 0.0
06/02:00pm SW 18 25 - - - - - - - 19.4 1017.7 0.0
06/01:30pm WSW 15 20 - - - - - - - 20.3 1017.6 0.0
06/01:00pm WSW 16 21 - - - - - - - 21.0 1017.6 0.0
06/12:30pm SW 16 23 - - - - - - - 20.1 1017.7 0.0
06/12:00pm WSW 15 21 - - - - - - - 19.2 1018.0 0.0
06/11:30am SW 13 18 - - - - - - - 19.7 1017.8 0.0
06/11:00am SW 14 22 - - - - - - - 19.1 1017.8 0.0
06/10:47am WSW 15 25 - - - - - - - 18.8 1017.7 0.0
06/10:30am SW 18 23 - - - - - - - 17.4 1017.9 0.0
06/10:00am WSW 14 19 - - - - - - - 18.1 1017.6 0.0
06/09:30am SW 12 17 - - - - - - - 16.0 1017.7 0.0
06/09:00am WSW 11 15 - - - - - - - 16.5 1017.5 0.0
06/08:30am WSW 11 15 - - - - - - - 15.5 1017.4 0.0
06/08:00am WSW 8 10 - - - - - - - 14.9 1017.1 0.0
06/07:30am WSW 11 14 - - - - - - - 14.1 1017.0 0.0
06/07:00am WSW 8 9 - - - - - - - 12.7 1016.9 0.0
06/06:30am WSW 8 10 - - - - - - - 12.6 1016.5 0.0
06/06:00am SW 8 11 - - - - - - - 13.0 1016.1 0.0
06/05:30am SW 9 16 - - - - - - - 14.1 1015.9 0.0
06/05:00am SW 11 16 - - - - - - - 14.4 1015.7 0.0
06/04:30am SW 11 14 - - - - - - - 14.4 1015.6 0.0
06/04:00am SW 9 12 - - - - - - - 14.4 1015.6 0.0
06/03:30am SW 9 13 - - - - - - - 14.4 1015.6 0.0
06/03:00am SW 9 10 - - - - - - - 14.4 1015.6 0.0
06/02:30am SW 9 11 - - - - - - - 14.2 1015.7 0.0
06/02:00am WSW 8 10 - - - - - - - 14.2 1015.6 0.0
06/01:30am SW 8 10 - - - - - - - 14.3 1015.9 0.0
06/01:00am SW 12 18 - - - - - - - 14.4 1016.2 0.0
06/12:30am SW 10 13 - - - - - - - 14.4 1016.2 0.0
06/12:00am WSW 10 14 - - - - - - - 14.5 1016.3 0.0
 
Date/Time
EDT
Wind Sea
Height
m
Swell Vis
km
Cloud Weather Temp
°C
Press
MSL
hPa
Rain since
9am
mm
Dir  Spd
kts
Gust
kts
Height
m
Period
s
Dir
05/11:30pm WSW 10 13 - - - - - - - 14.5 1016.1 0.0
05/11:00pm SW 11 15 - - - - - - - 14.3 1016.2 0.0
05/10:30pm SW 9 13 - - - - - - - 13.6 1016.2 0.0
05/10:00pm WSW 11 13 - - - - - - - 14.7 1016.2 0.0
05/09:30pm WSW 10 14 - - - - - - - 14.1 1016.1 0.0
05/09:00pm WSW 10 15 - - - - - - - 14.7 1015.7 0.0
05/08:30pm SW 10 14 - - - - - - - 15.3 1015.6 0.0
05/08:00pm WSW 11 14 - - - - - - - 15.8 1015.5 0.0
05/07:30pm SW 12 18 - - - - - - - 16.3 1015.2 0.0
05/07:00pm WSW 14 19 - - - - - - - 16.5 1015.1 0.0
05/06:30pm WSW 15 19 - - - - - - - 17.0 1014.9 0.0
05/06:00pm WSW 13 18 - - - - - - - 17.9 1015.0 0.0
05/05:30pm WSW 15 19 - - - - - - - 18.0 1015.1 0.0
05/05:00pm WSW 15 20 - - - - - - - 18.4 1015.1 0.0
05/04:30pm WSW 15 20 - - - - - - - 18.3 1015.1 0.0
05/04:00pm WSW 17 24 - - - - - - - 19.4 1015.3 0.0
05/03:30pm WSW 16 25 - - - - - - - 20.9 1015.2 0.0
05/03:00pm SW 15 23 - - - - - - - 20.1 1015.0 0.0
05/02:30pm WSW 16 21 - - - - - - - 20.2 1014.9 0.0
05/02:00pm SW 14 19 - - - - - - - 19.6 1015.1 0.0
05/01:30pm SW 15 19 - - - - - - - 18.9 1015.3 0.0
05/01:00pm SW 14 21 - - - - - - - 19.5 1015.0 0.0
05/12:30pm SW 12 17 - - - - - - - 18.9 1015.1 0.0
05/12:00pm SW 14 19 - - - - - - - 16.9 1015.2 0.0
05/11:30am SW 14 18 - - - - - - - 16.8 1015.1 0.0
05/11:00am SW 15 19 - - - - - - - 17.6 1014.7 0.0
05/10:30am SW 12 18 - - - - - - - 17.0 1014.7 0.0
05/10:00am SW 13 18 - - - - - - - 15.9 1014.7 0.0
05/09:30am SW 12 16 - - - - - - - 15.6 1014.5 0.0
05/09:00am SW 12 16 - - - - - - - 15.4 1014.2 0.0
05/08:30am WSW 11 15 - - - - - - - 15.0 1013.8 0.0
05/08:00am WSW 10 13 - - - - - - - 14.8 1013.3 0.0
05/07:30am WSW 10 14 - - - - - - - 14.5 1012.8 0.0
05/07:00am WSW 8 10 - - - - - - - 14.4 1012.5 0.0
05/06:30am WSW 10 15 - - - - - - - 14.4 1012.0 0.0
05/06:00am WSW 10 12 - - - - - - - 14.3 1011.5 0.0
05/05:30am WSW 9 13 - - - - - - - 14.3 1011.0 0.0
05/05:00am WSW 9 11 - - - - - - - 14.3 1010.6 0.0
05/04:30am SW 10 15 - - - - - - - 14.3 1010.0 0.0
05/04:00am WSW 12 15 - - - - - - - 14.3 1009.9 0.0
05/03:30am SW 14 19 - - - - - - - 14.5 1009.7 0.0
05/03:00am SW 13 19 - - - - - - - 14.4 1009.7 0.0
05/02:30am SW 11 15 - - - - - - - 14.3 1009.5 0.0
05/02:00am SW 11 14 - - - - - - - 14.3 1009.3 0.0
05/01:30am SW 12 17 - - - - - - - 14.3 1009.4 0.0
05/01:00am WSW 12 16 - - - - - - - 14.2 1009.5 0.0
05/12:30am SW 12 17 - - - - - - - 14.3 1009.4 0.0
05/12:00am WSW 11 14 - - - - - - - 14.0 1009.4 0.0
 
Date/Time
EDT
Wind Sea
Height
m
Swell Vis
km
Cloud Weather Temp
°C
Press
MSL
hPa
Rain since
9am
mm
Dir  Spd
kts
Gust
kts
Height
m
Period
s
Dir
04/11:30pm SW 12 16 - - - - - - - 14.0 1009.4 0.0
04/11:00pm SW 16 23 - - - - - - - 14.2 1009.3 0.0
04/10:30pm WSW 14 19 - - - - - - - 13.9 1009.3 0.0
04/10:00pm WSW 12 16 - - - - - - - 14.0 1009.1 0.0
04/09:30pm SW 11 15 - - - - - - - 13.4 1008.6 0.0
04/09:00pm SW 14 21 - - - - - - - 14.0 1008.1 0.0
04/08:30pm SW 15 21 - - - - - - - 14.3 1007.5 0.0
04/08:00pm SW 17 23 - - - - - - - 15.4 1006.8 0.0
04/07:30pm SW 18 24 - - - - - - - 16.3 1006.1 0.0
04/07:00pm SW 19 25 - - - - - - - 16.0 1005.6 0.0
04/06:30pm SW 20 27 - - - - - - - 17.0 1004.8 0.0
04/06:00pm SW 23 30 - - - - - - - 16.8 1004.5 0.0
04/05:38pm SW 22 32 - - - - - - - 16.5 1004.2 0.0
04/05:30pm SW 24 32 - - - - - - - 16.3 1004.2 0.0
04/05:00pm SW 22 30 - - - - - - - 17.5 1003.9 0.0
04/04:34pm SW 21 31 - - - - - - - 16.6 1003.4 0.0
04/04:30pm SW 21 29 - - - - - - - 16.7 1003.3 0.0
04/04:00pm SW 21 31 - - - - - - - 15.9 1003.3 0.0
04/03:36pm SW 18 28 - - - - - - - 15.8 1003.1 0.0
04/03:30pm SW 19 28 - - - - - - - 15.7 1003.0 0.0
04/03:12pm SW 19 29 - - - - - - - 16.0 1002.9 0.0
04/03:00pm SW 19 28 - - - - - - - 15.9 1002.8 0.0
04/02:30pm SW 22 32 - - - - - - - 16.1 1002.4 0.0
04/02:04pm SW 17 31 - - - - - - - 15.7 1002.1 0.0
04/02:00pm SW 17 25 - - - - - - - 15.9 1002.0 0.0
04/01:36pm SW 18 28 - - - - - - - 16.1 1001.9 0.0
04/01:30pm SW 19 28 - - - - - - - 15.8 1001.8 0.0
04/01:04pm SW 17 27 - - - - - - - 15.2 1001.7 0.0
04/01:00pm SW 19 27 - - - - - - - 15.1 1001.7 0.0
04/12:30pm SW 17 25 - - - - - - - 14.9 1001.5 0.0
04/12:00pm SW 17 23 - - - - - - - 15.1 1001.1 0.0
04/11:30am SW 18 24 - - - - - - - 14.6 1001.0 0.0
04/11:00am SW 15 21 - - - - - - - 14.9 1000.4 0.0
04/10:30am SW 18 25 - - - - - - - 14.6 1000.1 0.0
04/10:00am SW 18 24 - - - - - - - 14.6 999.7 0.0
04/09:30am SW 16 21 - - - - - - - 14.3 999.2 0.0
04/09:00am SW 17 28 - - - - - - - 14.2 998.6 4.4
04/08:52am SW 18 28 - - - - - - - 14.0 998.6 4.4
04/08:30am SW 12 17 - - - - - - - 13.7 998.4 4.4
04/08:00am SW 10 14 - - - - - - - 13.2 998.1 4.4
04/07:30am SW 10 13 - - - - - - - 12.7 997.6 4.4
04/07:00am SW 10 14 - - - - - - - 12.4 997.2 4.4

Other formats

Comma delimited format used in spreadsheet applications
http://www.bom.gov.au/fwo/IDT60701/IDT60701.94953.axf

JavaScript Object Notation format (JSON) in row-major order
http://www.bom.gov.au/fwo/IDT60701/IDT60701.94953.json

Data quality

Most of these data are generated automatically and are frequently updated. Quality checks on data are not normally performed. It is possible for incorrect values to appear. Refer to information at About Latest Weather Observations and please check the disclaimer before using these data.